createdAt,value
2019-04-13T00:01:28.169Z,2.80
2019-04-13T00:03:58.542Z,2.80
2019-04-13T00:06:35.781Z,2.80
2019-04-13T00:09:08.403Z,2.70
2019-04-13T00:11:50.869Z,2.70
2019-04-13T00:14:21.573Z,2.70
2019-04-13T00:16:52.145Z,2.70
2019-04-13T00:19:22.804Z,2.60
2019-04-13T00:21:53.187Z,2.60
2019-04-13T00:24:23.685Z,2.60
2019-04-13T00:26:54.141Z,2.50
2019-04-13T00:29:24.767Z,2.60
2019-04-13T00:31:55.403Z,2.50
2019-04-13T00:34:25.772Z,2.50
2019-04-13T00:36:56.101Z,2.40
2019-04-13T00:39:26.604Z,2.40
2019-04-13T00:41:57.101Z,2.30
2019-04-13T00:44:27.774Z,2.30
2019-04-13T00:46:58.372Z,2.20
2019-04-13T00:49:29.058Z,2.10
2019-04-13T00:51:59.481Z,2.10
2019-04-13T00:54:30.061Z,2.00
2019-04-13T00:57:00.387Z,1.90
2019-04-13T00:59:30.934Z,1.90
2019-04-13T01:02:01.565Z,1.70
2019-04-13T01:04:32.093Z,1.70
2019-04-13T01:07:02.640Z,1.70
2019-04-13T01:09:33.234Z,1.70
2019-04-13T01:12:03.860Z,1.60
2019-04-13T01:14:34.515Z,1.60
2019-04-13T01:17:05.129Z,1.60
2019-04-13T01:19:35.600Z,1.60
2019-04-13T01:22:06.101Z,1.60
2019-04-13T01:24:36.945Z,1.60
2019-04-13T01:27:07.484Z,1.60
2019-04-13T01:29:38.017Z,1.60
2019-04-13T01:32:08.986Z,1.50
2019-04-13T01:34:39.577Z,1.50
2019-04-13T01:37:10.169Z,1.50
2019-04-13T01:39:40.629Z,1.50
2019-04-13T01:42:10.949Z,1.50
2019-04-13T01:44:41.476Z,1.50
2019-04-13T01:47:11.987Z,1.50
2019-04-13T01:49:42.458Z,1.60
2019-04-13T01:52:13.062Z,1.50
2019-04-13T01:54:44.337Z,1.60
2019-04-13T01:57:14.920Z,1.70
2019-04-13T01:59:45.377Z,1.70
2019-04-13T02:02:29.922Z,1.70
2019-04-13T02:05:39.550Z,1.70
2019-04-13T02:08:15.038Z,1.70
2019-04-13T02:10:47.462Z,1.80
2019-04-13T02:13:17.996Z,1.80
2019-04-13T02:15:48.645Z,1.80
2019-04-13T02:18:19.258Z,1.80
2019-04-13T02:20:49.743Z,1.80
2019-04-13T02:23:20.226Z,1.80
2019-04-13T02:25:50.775Z,1.80
2019-04-13T02:28:21.208Z,1.80
2019-04-13T02:30:51.857Z,1.80
2019-04-13T02:33:22.462Z,1.80
2019-04-13T02:35:53.113Z,1.80
2019-04-13T02:38:23.814Z,1.80
2019-04-13T02:40:54.383Z,1.70
2019-04-13T02:43:24.957Z,1.80
2019-04-13T02:45:55.513Z,1.70
2019-04-13T02:48:25.890Z,1.70
2019-04-13T02:50:56.286Z,1.70
2019-04-13T02:53:26.654Z,1.70
2019-04-13T02:55:57.542Z,1.70
2019-04-13T02:58:28.133Z,1.60
2019-04-13T03:00:58.789Z,1.60
2019-04-13T03:03:29.391Z,1.50
2019-04-13T03:05:59.840Z,1.50
2019-04-13T03:08:30.245Z,1.50
2019-04-13T03:11:00.829Z,1.50
2019-04-13T03:13:31.321Z,1.50
2019-04-13T03:16:06.952Z,1.50
2019-04-13T03:18:42.704Z,1.50
2019-04-13T03:21:13.297Z,1.50
2019-04-13T03:23:43.881Z,1.50
2019-04-13T03:26:14.495Z,1.50
2019-04-13T03:28:44.993Z,1.50
2019-04-13T03:31:15.583Z,1.40
2019-04-13T03:33:46.097Z,1.50
2019-04-13T03:36:16.756Z,1.50
2019-04-13T03:38:47.145Z,1.50
2019-04-13T03:41:17.717Z,1.50
2019-04-13T03:43:48.289Z,1.50
2019-04-13T03:46:18.945Z,1.50
2019-04-13T03:48:50.271Z,1.50
2019-04-13T03:51:20.925Z,1.50
2019-04-13T03:53:51.538Z,1.50
2019-04-13T03:56:22.202Z,1.50
2019-04-13T03:58:52.801Z,1.50
2019-04-13T04:01:23.665Z,1.50
2019-04-13T04:03:54.187Z,1.50
2019-04-13T04:06:24.854Z,1.50
2019-04-13T04:08:55.327Z,1.50
2019-04-13T04:11:25.774Z,1.50
2019-04-13T04:13:56.202Z,1.50
2019-04-13T04:16:26.798Z,1.50
2019-04-13T04:21:27.367Z,1.40
2019-04-13T04:23:58.003Z,1.40
2019-04-13T04:26:28.669Z,1.40
2019-04-13T04:28:59.271Z,1.40
2019-04-13T04:31:29.951Z,1.30
2019-04-13T04:34:00.458Z,1.30
2019-04-13T04:36:30.914Z,1.30
2019-04-13T04:39:01.378Z,1.30
2019-04-13T04:41:31.893Z,1.30
2019-04-13T04:44:02.443Z,1.30
2019-04-13T04:46:32.890Z,1.30
2019-04-13T04:49:03.421Z,1.30
2019-04-13T04:51:33.903Z,1.40
2019-04-13T04:54:04.783Z,1.40
2019-04-13T04:56:35.348Z,1.40
2019-04-13T04:59:05.923Z,1.40
2019-04-13T05:01:36.585Z,1.50
2019-04-13T05:04:06.854Z,1.50
2019-04-13T05:06:37.784Z,1.50
2019-04-13T05:11:38.366Z,1.60
2019-04-13T05:14:08.861Z,1.60
2019-04-13T05:16:39.338Z,1.60
2019-04-13T05:19:09.969Z,1.70
2019-04-13T05:21:40.510Z,1.70
2019-04-13T05:24:11.009Z,1.80
2019-04-13T05:26:41.402Z,1.90
2019-04-13T05:29:11.860Z,1.90
2019-04-13T05:31:42.405Z,2.00
2019-04-13T05:34:13.037Z,2.10
2019-04-13T05:36:47.888Z,2.10
2019-04-13T05:39:14.405Z,2.20
2019-04-13T05:41:44.881Z,2.30
2019-04-13T05:44:15.335Z,2.30
2019-04-13T05:46:45.917Z,2.40
2019-04-13T05:49:16.498Z,2.40
2019-04-13T05:51:47.177Z,2.50
2019-04-13T05:54:17.776Z,2.60
2019-04-13T05:56:48.364Z,2.70
2019-04-13T05:59:21.150Z,2.80
2019-04-13T06:01:49.451Z,2.90
2019-04-13T06:04:20.083Z,2.90
2019-04-13T06:06:59.774Z,3.00
2019-04-13T06:09:22.082Z,3.00
2019-04-13T06:11:52.557Z,3.00
2019-04-13T06:14:23.011Z,3.00
2019-04-13T06:16:53.677Z,3.20
2019-04-13T06:19:24.073Z,3.30
2019-04-13T06:21:54.553Z,3.40
2019-04-13T06:24:25.030Z,3.40
2019-04-13T06:26:56.427Z,3.40
2019-04-13T06:29:26.865Z,3.50
2019-04-13T06:32:07.368Z,3.50
2019-04-13T06:34:50.800Z,3.70
2019-04-13T06:37:21.229Z,3.80
2019-04-13T06:39:51.625Z,3.80
2019-04-13T06:44:51.793Z,3.90
2019-04-13T06:47:22.242Z,4.00
2019-04-13T06:49:52.613Z,4.00
2019-04-13T06:52:23.505Z,4.20
2019-04-13T06:54:54.004Z,4.30
2019-04-13T06:57:25.987Z,4.40
2019-04-13T06:59:54.914Z,4.50
2019-04-13T07:02:25.417Z,4.70
2019-04-13T07:04:56.533Z,4.80
2019-04-13T07:07:45.146Z,4.90
2019-04-13T07:10:13.461Z,4.80
2019-04-13T07:12:48.733Z,4.80
2019-04-13T07:15:19.313Z,4.80
2019-04-13T07:17:49.774Z,4.80
2019-04-13T07:20:20.261Z,4.80
2019-04-13T07:22:53.807Z,4.90
2019-04-13T07:25:21.314Z,5.00
2019-04-13T07:30:21.553Z,5.00
2019-04-13T07:35:21.598Z,5.50
2019-04-13T07:37:52.178Z,5.60
2019-04-13T07:40:22.648Z,5.60
2019-04-13T07:42:53.148Z,5.60
2019-04-13T07:45:59.061Z,5.70
2019-04-13T07:48:41.672Z,5.80
2019-04-13T07:51:16.094Z,5.80
2019-04-13T07:53:46.951Z,5.80
2019-04-13T07:56:17.413Z,5.90
2019-04-13T07:58:47.976Z,5.90
2019-04-13T08:01:18.497Z,5.90
2019-04-13T08:03:48.945Z,5.90
2019-04-13T08:06:19.469Z,6.10
2019-04-13T08:08:50.226Z,6.40
2019-04-13T08:11:20.661Z,6.40
2019-04-13T08:13:51.173Z,6.50
2019-04-13T08:16:24.830Z,6.50
2019-04-13T08:19:03.481Z,6.50
2019-04-13T08:21:34.407Z,6.50
2019-04-13T08:24:04.805Z,6.70
2019-04-13T08:29:05.085Z,7.00
2019-04-13T08:31:35.521Z,7.10
2019-04-13T08:34:06.466Z,6.90
2019-04-13T08:39:14.407Z,7.20
2019-04-13T08:41:42.841Z,6.90
2019-04-13T08:44:13.330Z,6.80
2019-04-13T08:46:43.769Z,6.80
2019-04-13T08:51:43.938Z,7.20
2019-04-13T08:54:14.932Z,7.10
2019-04-13T08:56:45.635Z,7.10
2019-04-13T08:59:16.148Z,7.20
2019-04-13T09:01:46.658Z,7.50
2019-04-13T09:04:17.226Z,7.70
2019-04-13T09:06:47.596Z,7.70
2019-04-13T09:11:47.829Z,7.50
2019-04-13T09:14:18.624Z,7.50
2019-04-13T09:16:49.354Z,7.50
2019-04-13T09:19:55.176Z,7.30
2019-04-13T09:22:26.842Z,7.40
2019-04-13T09:27:25.921Z,7.50
2019-04-13T09:29:56.431Z,7.50
2019-04-13T09:32:28.175Z,7.30
2019-04-13T09:34:57.441Z,7.20
2019-04-13T09:37:27.817Z,7.30
2019-04-13T09:39:58.317Z,7.50
2019-04-13T09:42:28.818Z,7.80
2019-04-13T09:45:03.492Z,7.90
2019-04-13T09:47:29.672Z,8.00
2019-04-13T09:50:00.275Z,8.20
2019-04-13T09:52:31.544Z,7.90
2019-04-13T09:55:01.884Z,7.80
2019-04-13T09:57:32.374Z,7.50
2019-04-13T10:02:32.621Z,7.20
2019-04-13T10:05:03.184Z,7.10
2019-04-13T10:07:33.957Z,7.20
2019-04-13T10:13:40.189Z,7.40
2019-04-13T10:16:45.535Z,7.70
2019-04-13T10:19:16.053Z,8.10
2019-04-13T10:21:47.046Z,7.90
2019-04-13T10:24:17.314Z,7.80
2019-04-13T10:26:48.549Z,7.50
2019-04-13T10:29:19.343Z,7.50
2019-04-13T10:31:48.829Z,7.60
2019-04-13T10:34:19.339Z,7.80
2019-04-13T10:36:49.784Z,8.00
2019-04-13T10:39:20.446Z,7.70
2019-04-13T10:41:53.125Z,7.40
2019-04-13T10:44:21.397Z,7.40
2019-04-13T10:46:56.794Z,7.50
2019-04-13T10:49:34.744Z,7.60
2019-04-13T10:52:05.831Z,7.60
2019-04-13T10:54:36.241Z,7.70
2019-04-13T10:57:08.361Z,7.90
2019-04-13T10:59:38.829Z,8.10
2019-04-13T11:02:09.437Z,8.20
2019-04-13T11:04:39.880Z,8.30
2019-04-13T11:07:10.242Z,8.20
2019-04-13T11:09:40.745Z,7.80
2019-04-13T11:12:11.254Z,7.50
2019-04-13T11:14:41.821Z,7.50
2019-04-13T11:17:12.754Z,7.40
2019-04-13T11:19:43.192Z,7.40
2019-04-13T11:22:13.753Z,7.30
2019-04-13T11:24:44.225Z,7.70
2019-04-13T11:27:14.677Z,8.00
2019-04-13T11:29:45.103Z,7.90
2019-04-13T11:32:15.672Z,7.80
2019-04-13T11:34:46.233Z,7.80
2019-04-13T11:37:16.537Z,7.60
2019-04-13T11:39:47.000Z,7.30
2019-04-13T11:43:21.952Z,7.20
2019-04-13T11:45:58.633Z,7.50
2019-04-13T11:51:11.677Z,7.60
2019-04-13T11:53:42.399Z,7.40
2019-04-13T11:56:13.234Z,7.40
2019-04-13T11:58:44.489Z,7.50
2019-04-13T12:01:53.715Z,7.40
2019-04-13T12:05:32.955Z,7.50
2019-04-13T12:08:05.661Z,7.40
2019-04-13T12:11:38.729Z,7.20
2019-04-13T12:14:13.354Z,7.00
2019-04-13T12:16:48.562Z,7.00
2019-04-13T12:22:02.110Z,7.20
2019-04-13T12:24:33.244Z,7.10
2019-04-13T12:27:03.875Z,7.30
2019-04-13T12:32:04.227Z,7.50
2019-04-13T12:34:34.585Z,7.60
2019-04-13T12:37:05.182Z,7.40
2019-04-13T12:39:39.350Z,7.20
2019-04-13T12:42:06.370Z,7.20
2019-04-13T12:44:38.153Z,7.50
2019-04-13T12:47:09.908Z,7.60
2019-04-13T12:49:38.241Z,7.40
2019-04-13T12:54:38.127Z,6.90
2019-04-13T12:57:08.754Z,6.80
2019-04-13T12:59:40.767Z,6.80
2019-04-13T13:02:41.633Z,6.60
2019-04-13T13:05:14.243Z,6.50
2019-04-13T13:07:44.744Z,6.30
2019-04-13T13:10:15.844Z,6.20
2019-04-13T13:12:46.462Z,6.20
2019-04-13T13:15:16.401Z,6.10
2019-04-13T13:17:46.905Z,6.10
2019-04-13T13:20:17.690Z,6.10
2019-04-13T13:22:48.131Z,6.10
2019-04-13T13:25:21.293Z,6.00
2019-04-13T13:27:49.205Z,6.00
2019-04-13T13:30:20.648Z,6.00
2019-04-13T13:35:19.957Z,5.80
2019-04-13T13:37:50.795Z,5.60
2019-04-13T13:40:31.224Z,5.50
2019-04-13T13:42:52.552Z,5.50
2019-04-13T13:45:26.008Z,5.40
2019-04-13T13:47:53.757Z,5.40
2019-04-13T13:50:24.217Z,5.50
2019-04-13T13:52:54.966Z,5.60
2019-04-13T13:55:25.459Z,5.80
2019-04-13T14:00:38.861Z,5.90
2019-04-13T14:03:10.230Z,5.80
2019-04-13T14:05:40.222Z,5.90
2019-04-13T14:08:10.749Z,5.80
2019-04-13T14:10:43.203Z,5.60
2019-04-13T14:13:12.333Z,5.50
2019-04-13T14:15:43.049Z,5.50
2019-04-13T14:18:13.705Z,5.50
2019-04-13T14:20:44.413Z,5.30
2019-04-13T14:23:15.073Z,5.20
2019-04-13T14:25:47.525Z,5.20
2019-04-13T14:28:16.659Z,5.10
2019-04-13T14:30:47.459Z,5.00
2019-04-13T14:33:18.250Z,5.00
2019-04-13T14:35:48.824Z,5.00
2019-04-13T14:38:22.847Z,4.90
2019-04-13T14:40:55.853Z,4.80
2019-04-13T14:45:56.508Z,4.70
2019-04-13T14:48:26.216Z,4.60
2019-04-13T14:50:56.691Z,4.50
2019-04-13T14:53:27.124Z,4.50
2019-04-13T14:55:58.122Z,4.50
2019-04-13T14:58:28.437Z,4.40
2019-04-13T15:00:59.023Z,4.40
2019-04-13T15:03:29.577Z,4.20
2019-04-13T15:06:00.094Z,4.20
2019-04-13T15:08:30.517Z,4.10
2019-04-13T15:11:15.993Z,4.10
2019-04-13T15:13:31.758Z,4.20
2019-04-13T15:16:04.739Z,4.20
2019-04-13T15:18:44.652Z,4.20
2019-04-13T15:21:13.309Z,4.10
2019-04-13T15:23:44.553Z,4.10
2019-04-13T15:26:14.750Z,4.00
2019-04-13T15:37:17.453Z,3.60
2019-04-13T15:39:49.673Z,3.60
2019-04-13T15:42:22.713Z,3.60
2019-04-13T15:44:52.180Z,3.60
2019-04-13T15:47:23.887Z,3.50
2019-04-13T15:49:50.790Z,3.50
2019-04-13T15:52:22.192Z,3.40
2019-04-13T15:54:53.583Z,3.40
2019-04-13T15:57:24.225Z,3.40
2019-04-13T15:59:54.064Z,3.40
2019-04-13T16:02:24.992Z,3.40
2019-04-13T16:04:55.956Z,3.40
2019-04-13T16:07:25.781Z,3.40
2019-04-13T16:10:04.605Z,3.30
2019-04-13T16:12:40.582Z,3.30
2019-04-13T16:15:12.088Z,3.30
2019-04-13T16:17:42.270Z,3.30
2019-04-13T16:22:42.938Z,3.10
2019-04-13T16:25:12.794Z,3.10
2019-04-13T16:27:48.795Z,3.10
2019-04-13T16:30:24.012Z,3.10
2019-04-13T16:32:59.905Z,3.00
2019-04-13T16:35:37.027Z,3.10
2019-04-13T16:38:07.651Z,3.10
2019-04-13T16:40:39.289Z,3.00
2019-04-13T16:43:08.858Z,2.90
2019-04-13T16:45:48.530Z,2.90
2019-04-13T16:48:23.730Z,2.90
2019-04-13T16:51:58.229Z,2.90
2019-04-13T16:54:47.487Z,3.00
2019-04-13T16:57:13.294Z,3.00
2019-04-13T16:59:49.490Z,3.00
2019-04-13T17:02:31.988Z,2.90
2019-04-13T17:05:05.726Z,2.90
2019-04-13T17:07:36.475Z,2.90
2019-04-13T17:10:08.684Z,2.90
2019-04-13T17:12:41.662Z,2.80
2019-04-13T17:15:08.974Z,2.80
2019-04-13T17:17:40.542Z,2.90
2019-04-13T17:20:16.271Z,2.90
2019-04-13T17:22:52.013Z,2.80
2019-04-13T17:25:28.558Z,2.70
2019-04-13T17:28:10.947Z,2.70
2019-04-13T17:30:43.241Z,2.80
2019-04-13T17:33:15.407Z,2.70
2019-04-13T17:35:48.464Z,2.70
2019-04-13T17:38:18.460Z,2.70
2019-04-13T17:40:51.408Z,2.70
2019-04-13T17:43:28.713Z,2.70
2019-04-13T17:50:40.884Z,2.70
2019-04-13T17:53:16.270Z,2.70
2019-04-13T17:56:05.215Z,2.70
2019-04-13T17:59:40.725Z,2.70
2019-04-13T18:02:17.590Z,2.70
2019-04-13T18:05:52.145Z,2.70
2019-04-13T18:08:36.772Z,2.70
2019-04-13T18:14:07.158Z,2.80
2019-04-13T18:16:42.184Z,2.80
2019-04-13T18:21:45.273Z,2.80
2019-04-13T18:26:45.792Z,2.80
2019-04-13T18:29:17.401Z,2.80
2019-04-13T18:31:48.261Z,2.80
2019-04-13T18:34:18.451Z,2.80
2019-04-13T18:36:48.690Z,2.80
2019-04-13T18:39:19.143Z,2.80
2019-04-13T18:41:50.553Z,2.90
2019-04-13T18:46:50.013Z,2.80
2019-04-13T18:49:20.765Z,2.80
2019-04-13T18:51:51.357Z,2.90
2019-04-13T18:54:22.270Z,2.90
2019-04-13T18:56:52.725Z,2.90
2019-04-13T18:59:23.699Z,2.90
2019-04-13T19:01:53.905Z,3.00
2019-04-13T19:04:24.502Z,3.00
2019-04-13T19:06:54.838Z,3.00
2019-04-13T19:09:25.401Z,3.00
2019-04-13T19:11:55.998Z,3.00
2019-04-13T19:14:26.449Z,3.00
2019-04-13T19:16:56.957Z,3.00
2019-04-13T19:19:27.866Z,3.10
2019-04-13T19:21:58.524Z,3.10
2019-04-13T19:24:28.998Z,3.10
2019-04-13T19:26:59.904Z,3.10
2019-04-13T19:29:30.541Z,3.10
2019-04-13T19:32:01.179Z,3.10
2019-04-13T19:34:31.753Z,3.10
2019-04-13T19:37:02.208Z,3.10
2019-04-13T19:39:32.805Z,3.10
2019-04-13T19:44:33.025Z,3.20
2019-04-13T19:47:03.613Z,3.20
2019-04-13T19:49:34.166Z,3.20
2019-04-13T19:52:09.889Z,3.20
2019-04-13T19:54:40.785Z,3.20
2019-04-13T19:59:40.909Z,3.20
2019-04-13T20:02:11.553Z,3.20
2019-04-13T20:04:42.253Z,3.20
2019-04-13T20:07:12.673Z,3.20
2019-04-13T20:09:43.334Z,3.20
2019-04-13T20:12:13.838Z,3.20
2019-04-13T20:14:45.703Z,3.20
2019-04-13T20:17:14.989Z,3.10
2019-04-13T20:19:46.108Z,3.10
2019-04-13T20:22:16.646Z,3.10
2019-04-13T20:24:47.098Z,3.10
2019-04-13T20:27:17.803Z,3.10
2019-04-13T20:29:49.139Z,3.10
2019-04-13T20:32:19.170Z,3.10
2019-04-13T20:34:50.885Z,3.10
2019-04-13T20:37:20.913Z,3.10
2019-04-13T20:39:55.304Z,3.00
2019-04-13T20:42:26.835Z,3.00
2019-04-13T20:44:56.683Z,3.00
2019-04-13T20:49:58.118Z,3.00
2019-04-13T20:52:28.710Z,3.00
2019-04-13T20:54:58.441Z,3.00
2019-04-13T20:57:30.275Z,3.00
2019-04-13T21:00:00.748Z,3.00
2019-04-13T21:02:30.924Z,3.10
2019-04-13T21:05:01.412Z,3.00
2019-04-13T21:07:33.443Z,3.10
2019-04-13T21:10:03.141Z,3.10
2019-04-13T21:12:33.742Z,3.10
2019-04-13T21:17:35.317Z,3.10
2019-04-13T21:20:05.556Z,3.10
2019-04-13T21:22:35.937Z,3.10
2019-04-13T21:25:07.664Z,3.10
2019-04-13T21:27:37.766Z,3.10
2019-04-13T21:30:08.216Z,3.10
2019-04-13T21:32:39.853Z,3.10
2019-04-13T21:35:10.010Z,3.20
2019-04-13T21:37:39.924Z,3.10
2019-04-13T21:40:10.501Z,3.10
2019-04-13T21:42:42.350Z,3.10
2019-04-13T21:45:12.477Z,3.10
2019-04-13T21:50:19.426Z,3.20
2019-04-13T21:53:04.916Z,3.20
2019-04-13T21:55:37.700Z,3.10
2019-04-13T21:58:16.394Z,3.20
2019-04-13T22:00:57.468Z,3.20
2019-04-13T22:03:27.657Z,3.20
2019-04-13T22:05:59.427Z,3.20
2019-04-13T22:08:29.513Z,3.20
2019-04-13T22:10:59.916Z,3.20
2019-04-13T22:13:31.720Z,3.30
2019-04-13T22:16:01.697Z,3.30
2019-04-13T22:18:32.229Z,3.30
2019-04-13T22:21:02.674Z,3.30
2019-04-13T22:23:34.517Z,3.30
2019-04-13T22:26:04.560Z,3.30
2019-04-13T22:28:39.612Z,3.40
2019-04-13T22:31:22.023Z,3.40
2019-04-13T22:33:52.438Z,3.40
2019-04-13T22:36:27.333Z,3.40
2019-04-13T22:38:58.753Z,3.40
2019-04-13T22:41:28.861Z,3.40
2019-04-13T22:43:59.029Z,3.40
2019-04-13T22:46:30.314Z,3.40
2019-04-13T22:49:05.965Z,3.50
2019-04-13T22:52:12.754Z,3.50
2019-04-13T22:54:51.648Z,3.50
2019-04-13T22:57:25.837Z,3.50
2019-04-13T22:59:56.051Z,3.50
2019-04-13T23:02:32.012Z,3.50
2019-04-13T23:05:02.574Z,3.50
2019-04-13T23:07:32.780Z,3.50
2019-04-13T23:10:03.397Z,3.50
2019-04-13T23:12:33.942Z,3.60
2019-04-13T23:15:14.094Z,3.50
2019-04-13T23:17:35.505Z,3.60
2019-04-13T23:20:06.438Z,3.60
2019-04-13T23:22:37.158Z,3.60
2019-04-13T23:25:07.784Z,3.60
2019-04-13T23:27:39.350Z,3.60
2019-04-13T23:30:09.490Z,3.60
2019-04-13T23:32:40.168Z,3.60
2019-04-13T23:35:10.535Z,3.60
2019-04-13T23:37:41.203Z,3.60
2019-04-13T23:40:11.677Z,3.60
2019-04-13T23:42:42.253Z,3.60
2019-04-13T23:45:19.423Z,3.60
2019-04-13T23:47:44.715Z,3.60
2019-04-13T23:50:14.125Z,3.60
2019-04-13T23:52:45.796Z,3.60
2019-04-13T23:55:16.154Z,3.60
2019-04-13T23:57:55.351Z,3.70
